sensor_id;sensor_type;location;lat;lon;timestamp;pressure;altitude;pressure_sealevel;temperature;humidity
35676;BME280;21790;42.668;23.298;2023-08-24T00:00:38;94810.78;;;29.77;39.99
35676;BME280;21790;42.668;23.298;2023-08-24T00:03:03;94820.16;;;29.70;39.75
35676;BME280;21790;42.668;23.298;2023-08-24T00:05:29;94819.91;;;29.75;40.42
35676;BME280;21790;42.668;23.298;2023-08-24T00:07:54;94820.16;;;29.70;40.45
35676;BME280;21790;42.668;23.298;2023-08-24T00:10:20;94819.56;;;29.71;40.42
35676;BME280;21790;42.668;23.298;2023-08-24T00:12:45;94814.38;;;29.60;40.73
35676;BME280;21790;42.668;23.298;2023-08-24T00:15:11;94819.63;;;29.46;41.20
35676;BME280;21790;42.668;23.298;2023-08-24T00:17:37;94809.50;;;29.53;40.51
35676;BME280;21790;42.668;23.298;2023-08-24T00:20:05;94809.09;;;29.57;40.76
35676;BME280;21790;42.668;23.298;2023-08-24T00:22:33;94804.13;;;29.57;40.89
35676;BME280;21790;42.668;23.298;2023-08-24T00:24:58;94801.53;;;29.51;40.47
35676;BME280;21790;42.668;23.298;2023-08-24T00:27:24;94801.97;;;29.48;40.76
35676;BME280;21790;42.668;23.298;2023-08-24T00:29:50;94799.53;;;29.44;40.74
35676;BME280;21790;42.668;23.298;2023-08-24T00:32:15;94800.22;;;29.52;40.23
35676;BME280;21790;42.668;23.298;2023-08-24T00:34:41;94808.91;;;29.37;40.34
35676;BME280;21790;42.668;23.298;2023-08-24T00:37:06;94807.09;;;29.25;40.76
35676;BME280;21790;42.668;23.298;2023-08-24T00:39:32;94803.50;;;29.24;40.94
35676;BME280;21790;42.668;23.298;2023-08-24T00:41:58;94808.94;;;29.30;41.16
35676;BME280;21790;42.668;23.298;2023-08-24T00:44:23;94806.06;;;29.37;40.96
35676;BME280;21790;42.668;23.298;2023-08-24T00:46:49;94807.25;;;29.34;40.99
35676;BME280;21790;42.668;23.298;2023-08-24T00:49:15;94816.00;;;29.29;41.25
35676;BME280;21790;42.668;23.298;2023-08-24T00:51:40;94813.97;;;29.22;41.57
35676;BME280;21790;42.668;23.298;2023-08-24T00:54:06;94821.81;;;29.13;41.63
35676;BME280;21790;42.668;23.298;2023-08-24T00:56:32;94814.09;;;29.06;41.69
35676;BME280;21790;42.668;23.298;2023-08-24T00:58:58;94817.09;;;29.08;41.55
35676;BME280;21790;42.668;23.298;2023-08-24T01:01:23;94816.78;;;29.04;41.90
35676;BME280;21790;42.668;23.298;2023-08-24T01:03:50;94818.34;;;28.98;41.95
35676;BME280;21790;42.668;23.298;2023-08-24T01:06:15;94809.09;;;29.15;41.63
35676;BME280;21790;42.668;23.298;2023-08-24T01:08:41;94819.38;;;29.10;42.14
35676;BME280;21790;42.668;23.298;2023-08-24T01:11:26;94814.03;;;29.14;42.29
35676;BME280;21790;42.668;23.298;2023-08-24T01:14:07;94813.63;;;29.18;41.99
35676;BME280;21790;42.668;23.298;2023-08-24T01:16:34;94797.38;;;29.10;41.93
35676;BME280;21790;42.668;23.298;2023-08-24T01:19:06;94805.81;;;29.01;42.49
35676;BME280;21790;42.668;23.298;2023-08-24T01:21:36;94799.97;;;28.91;42.51
35676;BME280;21790;42.668;23.298;2023-08-24T01:26:30;94797.03;;;28.82;42.10
35676;BME280;21790;42.668;23.298;2023-08-24T01:28:56;94805.63;;;28.99;41.87
35676;BME280;21790;42.668;23.298;2023-08-24T01:31:22;94804.47;;;29.02;41.49
35676;BME280;21790;42.668;23.298;2023-08-24T01:33:48;94808.94;;;28.88;41.84
35676;BME280;21790;42.668;23.298;2023-08-24T01:36:15;94806.09;;;28.88;41.44
35676;BME280;21790;42.668;23.298;2023-08-24T01:38:42;94813.53;;;28.83;41.84
35676;BME280;21790;42.668;23.298;2023-08-24T01:43:40;94807.50;;;28.79;41.85
35676;BME280;21790;42.668;23.298;2023-08-24T01:46:09;94816.19;;;28.81;41.76
35676;BME280;21790;42.668;23.298;2023-08-24T01:48:36;94823.81;;;28.71;41.60
35676;BME280;21790;42.668;23.298;2023-08-24T01:51:02;94830.59;;;28.83;41.67
35676;BME280;21790;42.668;23.298;2023-08-24T01:53:32;94819.03;;;28.81;41.71
35676;BME280;21790;42.668;23.298;2023-08-24T01:55:58;94823.13;;;28.63;42.21
35676;BME280;21790;42.668;23.298;2023-08-24T01:58:23;94814.91;;;28.42;42.98
35676;BME280;21790;42.668;23.298;2023-08-24T02:00:49;94812.66;;;28.41;42.71
35676;BME280;21790;42.668;23.298;2023-08-24T02:03:15;94817.53;;;28.48;42.77
35676;BME280;21790;42.668;23.298;2023-08-24T02:05:40;94814.09;;;28.49;43.02
35676;BME280;21790;42.668;23.298;2023-08-24T02:08:06;94827.19;;;28.52;42.99
35676;BME280;21790;42.668;23.298;2023-08-24T02:10:31;94827.22;;;28.45;43.13
35676;BME280;21790;42.668;23.298;2023-08-24T02:12:57;94828.84;;;28.55;42.86
35676;BME280;21790;42.668;23.298;2023-08-24T02:15:22;94822.75;;;28.59;43.15
35676;BME280;21790;42.668;23.298;2023-08-24T02:17:48;94821.19;;;28.41;43.49
35676;BME280;21790;42.668;23.298;2023-08-24T02:20:14;94825.38;;;28.32;43.61
35676;BME280;21790;42.668;23.298;2023-08-24T02:22:39;94822.91;;;28.36;43.73
35676;BME280;21790;42.668;23.298;2023-08-24T02:25:06;94833.03;;;28.54;43.37
35676;BME280;21790;42.668;23.298;2023-08-24T02:27:32;94825.03;;;28.60;43.50
35676;BME280;21790;42.668;23.298;2023-08-24T02:29:58;94827.19;;;28.52;43.30
35676;BME280;21790;42.668;23.298;2023-08-24T02:32:24;94831.72;;;28.48;43.54
35676;BME280;21790;42.668;23.298;2023-08-24T02:34:49;94832.47;;;28.16;44.14
35676;BME280;21790;42.668;23.298;2023-08-24T02:37:15;94826.41;;;28.19;44.30
35676;BME280;21790;42.668;23.298;2023-08-24T02:39:41;94829.19;;;28.27;43.96
35676;BME280;21790;42.668;23.298;2023-08-24T02:42:06;94826.75;;;28.23;43.99
35676;BME280;21790;42.668;23.298;2023-08-24T02:44:32;94826.75;;;28.23;44.15
35676;BME280;21790;42.668;23.298;2023-08-24T02:46:57;94822.19;;;27.80;44.26
35676;BME280;21790;42.668;23.298;2023-08-24T02:49:23;94806.97;;;27.93;43.99
35676;BME280;21790;42.668;23.298;2023-08-24T02:51:48;94806.03;;;27.98;43.70
35676;BME280;21790;42.668;23.298;2023-08-24T02:54:14;94798.09;;;27.89;43.72
35676;BME280;21790;42.668;23.298;2023-08-24T02:56:39;94802.06;;;27.94;44.20
35676;BME280;21790;42.668;23.298;2023-08-24T02:59:05;94804.47;;;28.05;43.60
35676;BME280;21790;42.668;23.298;2023-08-24T03:01:31;94799.75;;;28.00;43.56
35676;BME280;21790;42.668;23.298;2023-08-24T03:03:57;94809.44;;;27.97;43.46
35676;BME280;21790;42.668;23.298;2023-08-24T03:06:22;94812.50;;;27.91;43.64
35676;BME280;21790;42.668;23.298;2023-08-24T03:08:50;94808.28;;;28.00;43.83
35676;BME280;21790;42.668;23.298;2023-08-24T03:11:16;94815.44;;;28.08;43.82
35676;BME280;21790;42.668;23.298;2023-08-24T03:13:41;94811.66;;;28.06;43.63
35676;BME280;21790;42.668;23.298;2023-08-24T03:16:08;94815.84;;;28.12;43.50
35676;BME280;21790;42.668;23.298;2023-08-24T03:18:34;94822.06;;;28.18;43.62
35676;BME280;21790;42.668;23.298;2023-08-24T03:21:00;94825.28;;;28.15;43.73
35676;BME280;21790;42.668;23.298;2023-08-24T03:23:26;94821.66;;;28.22;43.83
35676;BME280;21790;42.668;23.298;2023-08-24T03:25:51;94826.22;;;28.17;43.79
35676;BME280;21790;42.668;23.298;2023-08-24T03:28:17;94839.69;;;28.09;44.01
35676;BME280;21790;42.668;23.298;2023-08-24T03:30:48;94839.69;;;28.09;44.01
35676;BME280;21790;42.668;23.298;2023-08-24T03:33:14;94857.19;;;27.91;44.37
35676;BME280;21790;42.668;23.298;2023-08-24T03:35:40;94846.09;;;28.10;44.24
35676;BME280;21790;42.668;23.298;2023-08-24T03:38:06;94847.50;;;27.94;44.41
35676;BME280;21790;42.668;23.298;2023-08-24T03:40:32;94859.78;;;28.04;44.11
35676;BME280;21790;42.668;23.298;2023-08-24T03:42:57;94852.75;;;28.05;44.14
35676;BME280;21790;42.668;23.298;2023-08-24T03:45:23;94863.97;;;28.03;44.05
35676;BME280;21790;42.668;23.298;2023-08-24T03:47:49;94859.22;;;28.13;43.63
35676;BME280;21790;42.668;23.298;2023-08-24T03:50:15;94857.88;;;28.14;43.84
35676;BME280;21790;42.668;23.298;2023-08-24T03:52:41;94875.50;;;28.05;43.83
35676;BME280;21790;42.668;23.298;2023-08-24T03:55:07;94869.09;;;27.97;44.39
35676;BME280;21790;42.668;23.298;2023-08-24T03:57:33;94868.91;;;27.95;43.94
35676;BME280;21790;42.668;23.298;2023-08-24T03:59:59;94867.59;;;27.88;44.04
35676;BME280;21790;42.668;23.298;2023-08-24T04:02:24;94862.50;;;27.86;44.49
35676;BME280;21790;42.668;23.298;2023-08-24T04:04:50;94862.09;;;27.98;44.24
35676;BME280;21790;42.668;23.298;2023-08-24T04:07:16;94865.50;;;27.88;44.72
35676;BME280;21790;42.668;23.298;2023-08-24T04:09:42;94866.09;;;27.87;44.47
35676;BME280;21790;42.668;23.298;2023-08-24T04:12:07;94868.53;;;27.91;44.29
35676;BME280;21790;42.668;23.298;2023-08-24T04:14:33;94862.16;;;27.75;44.65
35676;BME280;21790;42.668;23.298;2023-08-24T04:17:00;94868.38;;;27.81;44.57
35676;BME280;21790;42.668;23.298;2023-08-24T04:19:25;94867.97;;;27.92;44.39
35676;BME280;21790;42.668;23.298;2023-08-24T04:21:51;94864.38;;;27.92;43.94
35676;BME280;21790;42.668;23.298;2023-08-24T04:24:17;94865.34;;;27.86;44.47
35676;BME280;21790;42.668;23.298;2023-08-24T04:26:43;94861.38;;;27.82;44.28
35676;BME280;21790;42.668;23.298;2023-08-24T04:29:09;94862.09;;;27.98;44.20
35676;BME280;21790;42.668;23.298;2023-08-24T04:31:35;94871.53;;;28.00;43.80
35676;BME280;21790;42.668;23.298;2023-08-24T04:34:02;94864.53;;;28.01;43.98
35676;BME280;21790;42.668;23.298;2023-08-24T04:36:29;94869.44;;;28.01;44.06
35676;BME280;21790;42.668;23.298;2023-08-24T04:38:55;94873.66;;;27.92;44.37
35676;BME280;21790;42.668;23.298;2023-08-24T04:41:20;94861.59;;;27.76;44.50
35676;BME280;21790;42.668;23.298;2023-08-24T04:43:46;94862.66;;;27.88;44.40
35676;BME280;21790;42.668;23.298;2023-08-24T04:46:11;94865.69;;;27.91;44.65
35676;BME280;21790;42.668;23.298;2023-08-24T04:48:37;94864.75;;;27.88;44.55
35676;BME280;21790;42.668;23.298;2023-08-24T04:51:02;94871.19;;;27.88;44.53
35676;BME280;21790;42.668;23.298;2023-08-24T04:53:28;94876.09;;;27.88;44.58
35676;BME280;21790;42.668;23.298;2023-08-24T04:55:54;94882.00;;;27.82;44.77
35676;BME280;21790;42.668;23.298;2023-08-24T04:58:19;94870.34;;;27.33;45.53
35676;BME280;21790;42.668;23.298;2023-08-24T05:00:45;94871.66;;;27.17;46.35
35676;BME280;21790;42.668;23.298;2023-08-24T05:03:11;94876.94;;;27.28;45.82
35676;BME280;21790;42.668;23.298;2023-08-24T05:05:37;94880.16;;;27.47;45.39
35676;BME280;21790;42.668;23.298;2023-08-24T05:08:05;94874.28;;;27.68;44.90
35676;BME280;21790;42.668;23.298;2023-08-24T05:10:37;94861.44;;;27.59;44.70
35676;BME280;21790;42.668;23.298;2023-08-24T05:13:03;94876.16;;;27.73;44.92
35676;BME280;21790;42.668;23.298;2023-08-24T05:15:29;94873.47;;;27.82;44.64
35676;BME280;21790;42.668;23.298;2023-08-24T05:17:54;94875.75;;;27.92;44.41
35676;BME280;21790;42.668;23.298;2023-08-24T05:20:27;94875.34;;;27.95;44.25
35676;BME280;21790;42.668;23.298;2023-08-24T05:22:52;94879.16;;;27.90;44.21
35676;BME280;21790;42.668;23.298;2023-08-24T05:25:20;94884.78;;;28.05;44.25
35676;BME280;21790;42.668;23.298;2023-08-24T05:27:46;94881.72;;;28.18;43.95
35676;BME280;21790;42.668;23.298;2023-08-24T05:30:12;94895.75;;;28.16;43.95
35676;BME280;21790;42.668;23.298;2023-08-24T05:32:38;94895.47;;;28.37;43.86
35676;BME280;21790;42.668;23.298;2023-08-24T05:35:07;94889.53;;;28.50;43.47
35676;BME280;21790;42.668;23.298;2023-08-24T05:37:34;94900.50;;;28.54;43.63
35676;BME280;21790;42.668;23.298;2023-08-24T05:40:01;94896.69;;;28.59;43.50
35676;BME280;21790;42.668;23.298;2023-08-24T05:42:27;94903.50;;;28.63;43.38
35676;BME280;21790;42.668;23.298;2023-08-24T05:44:53;94903.22;;;28.84;42.84
35676;BME280;21790;42.668;23.298;2023-08-24T05:47:18;94912.41;;;29.00;42.79
35676;BME280;21790;42.668;23.298;2023-08-24T05:49:44;94909.69;;;29.09;42.50
35676;BME280;21790;42.668;23.298;2023-08-24T05:55:17;94912.47;;;29.17;42.05
35676;BME280;21790;42.668;23.298;2023-08-24T05:57:43;94913.63;;;29.14;42.26
35676;BME280;21790;42.668;23.298;2023-08-24T06:00:08;94916.91;;;29.35;41.73
35676;BME280;21790;42.668;23.298;2023-08-24T06:02:38;94915.63;;;29.53;41.35
35676;BME280;21790;42.668;23.298;2023-08-24T06:05:05;94912.34;;;29.57;41.31
35676;BME280;21790;42.668;23.298;2023-08-24T06:07:32;94904.69;;;29.84;40.88
35676;BME280;21790;42.668;23.298;2023-08-24T06:09:57;94903.91;;;30.09;40.54
35676;BME280;21790;42.668;23.298;2023-08-24T06:12:23;94913.84;;;30.34;40.27
35676;BME280;21790;42.668;23.298;2023-08-24T06:14:49;94914.94;;;30.56;39.40
35676;BME280;21790;42.668;23.298;2023-08-24T06:17:14;94910.28;;;30.78;39.52
35676;BME280;21790;42.668;23.298;2023-08-24T06:19:40;94916.25;;;30.99;38.60
35676;BME280;21790;42.668;23.298;2023-08-24T06:22:06;94908.84;;;31.13;37.78
35676;BME280;21790;42.668;23.298;2023-08-24T06:24:32;94906.53;;;31.29;37.78
35676;BME280;21790;42.668;23.298;2023-08-24T06:26:57;94921.41;;;31.37;37.13
35676;BME280;21790;42.668;23.298;2023-08-24T06:29:25;94912.44;;;31.41;37.35
35676;BME280;21790;42.668;23.298;2023-08-24T06:31:50;94907.19;;;31.47;37.22
35676;BME280;21790;42.668;23.298;2023-08-24T06:34:16;94915.13;;;30.85;37.48
35676;BME280;21790;42.668;23.298;2023-08-24T06:36:41;94909.13;;;31.08;37.90
35676;BME280;21790;42.668;23.298;2023-08-24T06:39:07;94912.81;;;31.28;37.86
35676;BME280;21790;42.668;23.298;2023-08-24T06:41:35;94912.72;;;31.45;37.35
35676;BME280;21790;42.668;23.298;2023-08-24T06:44:01;94908.13;;;31.59;37.28
35676;BME280;21790;42.668;23.298;2023-08-24T06:46:28;94911.06;;;31.78;36.87
35676;BME280;21790;42.668;23.298;2023-08-24T06:48:54;94914.06;;;31.80;36.90
35676;BME280;21790;42.668;23.298;2023-08-24T06:51:20;94915.88;;;31.85;36.96
35676;BME280;21790;42.668;23.298;2023-08-24T06:53:46;94910.03;;;32.03;36.67
35676;BME280;21790;42.668;23.298;2023-08-24T06:56:14;94910.22;;;32.14;36.65
35676;BME280;21790;42.668;23.298;2023-08-24T06:58:44;94909.63;;;32.35;36.12
35676;BME280;21790;42.668;23.298;2023-08-24T07:01:11;94901.81;;;32.45;35.99
35676;BME280;21790;42.668;23.298;2023-08-24T07:03:37;94901.03;;;32.64;35.67
35676;BME280;21790;42.668;23.298;2023-08-24T07:06:05;94910.81;;;32.80;35.35
35676;BME280;21790;42.668;23.298;2023-08-24T07:08:34;94898.88;;;32.93;35.20
35676;BME280;21790;42.668;23.298;2023-08-24T07:11:00;94899.59;;;33.03;35.22
35676;BME280;21790;42.668;23.298;2023-08-24T07:13:25;94897.50;;;33.04;35.12
35676;BME280;21790;42.668;23.298;2023-08-24T07:15:52;94900.28;;;32.83;35.30
35676;BME280;21790;42.668;23.298;2023-08-24T07:18:17;94896.53;;;32.70;35.52
35676;BME280;21790;42.668;23.298;2023-08-24T07:20:43;94885.22;;;32.72;35.25
35676;BME280;21790;42.668;23.298;2023-08-24T07:23:08;94889.56;;;32.73;35.36
35676;BME280;21790;42.668;23.298;2023-08-24T07:25:34;94888.22;;;32.74;34.87
35676;BME280;21790;42.668;23.298;2023-08-24T07:28:00;94896.81;;;32.74;35.32
35676;BME280;21790;42.668;23.298;2023-08-24T07:30:27;94891.72;;;32.73;35.09
35676;BME280;21790;42.668;23.298;2023-08-24T07:32:53;94893.19;;;32.74;35.37
35676;BME280;21790;42.668;23.298;2023-08-24T07:35:18;94882.50;;;32.74;35.57
35676;BME280;21790;42.668;23.298;2023-08-24T07:37:46;94894.84;;;32.77;35.47
35676;BME280;21790;42.668;23.298;2023-08-24T07:40:11;94901.47;;;32.79;34.92
35676;BME280;21790;42.668;23.298;2023-08-24T07:42:43;94897.84;;;32.89;35.29
35676;BME280;21790;42.668;23.298;2023-08-24T07:45:13;94889.81;;;32.97;34.95
35676;BME280;21790;42.668;23.298;2023-08-24T07:47:41;94885.59;;;32.98;34.64
35676;BME280;21790;42.668;23.298;2023-08-24T07:50:10;94894.59;;;33.13;34.82
35676;BME280;21790;42.668;23.298;2023-08-24T07:52:38;94889.34;;;33.19;34.20
35676;BME280;21790;42.668;23.298;2023-08-24T07:55:05;94891.50;;;33.40;34.34
35676;BME280;21790;42.668;23.298;2023-08-24T07:57:32;94886.47;;;33.50;33.97
35676;BME280;21790;42.668;23.298;2023-08-24T07:59:59;94881.84;;;33.67;33.11
35676;BME280;21790;42.668;23.298;2023-08-24T08:02:25;94880.28;;;33.85;33.04
35676;BME280;21790;42.668;23.298;2023-08-24T08:04:56;94875.44;;;34.09;32.94
35676;BME280;21790;42.668;23.298;2023-08-24T08:07:23;94876.41;;;34.23;32.56
35676;BME280;21790;42.668;23.298;2023-08-24T08:09:49;94884.38;;;34.46;31.84
35676;BME280;21790;42.668;23.298;2023-08-24T08:12:14;94886.38;;;34.55;31.39
35676;BME280;21790;42.668;23.298;2023-08-24T08:14:40;94879.53;;;34.60;31.57
35676;BME280;21790;42.668;23.298;2023-08-24T08:17:05;94880.63;;;34.76;31.03
35676;BME280;21790;42.668;23.298;2023-08-24T08:19:31;94882.16;;;34.89;31.27
35676;BME280;21790;42.668;23.298;2023-08-24T08:21:57;94884.31;;;35.00;31.18
35676;BME280;21790;42.668;23.298;2023-08-24T08:24:22;94881.81;;;35.06;30.78
35676;BME280;21790;42.668;23.298;2023-08-24T08:26:48;94870.94;;;35.04;31.04
35676;BME280;21790;42.668;23.298;2023-08-24T08:29:13;94878.34;;;35.19;30.74
35676;BME280;21790;42.668;23.298;2023-08-24T08:31:40;94874.06;;;35.08;30.73
35676;BME280;21790;42.668;23.298;2023-08-24T08:34:06;94876.06;;;35.06;30.03
35676;BME280;21790;42.668;23.298;2023-08-24T08:36:31;94872.47;;;35.17;30.29
35676;BME280;21790;42.668;23.298;2023-08-24T08:38:59;94871.88;;;35.18;29.78
35676;BME280;21790;42.668;23.298;2023-08-24T08:41:27;94865.63;;;35.34;29.94
35676;BME280;21790;42.668;23.298;2023-08-24T08:43:56;94868.25;;;35.30;30.08
35676;BME280;21790;42.668;23.298;2023-08-24T08:46:21;94856.13;;;35.43;29.78
35676;BME280;21790;42.668;23.298;2023-08-24T08:48:48;94862.88;;;35.59;29.95
35676;BME280;21790;42.668;23.298;2023-08-24T08:51:16;94857.78;;;35.46;29.59
35676;BME280;21790;42.668;23.298;2023-08-24T08:53:43;94848.25;;;35.55;29.77
35676;BME280;21790;42.668;23.298;2023-08-24T08:56:09;94846.16;;;35.67;29.47
35676;BME280;21790;42.668;23.298;2023-08-24T08:58:36;94849.50;;;35.75;29.28
35676;BME280;21790;42.668;23.298;2023-08-24T09:01:06;94835.88;;;35.64;29.87
35676;BME280;21790;42.668;23.298;2023-08-24T09:03:33;94836.38;;;35.60;29.58
35676;BME280;21790;42.668;23.298;2023-08-24T09:05:59;94839.91;;;35.71;29.43
35676;BME280;21790;42.668;23.298;2023-08-24T09:08:26;94836.25;;;35.82;29.42
35676;BME280;21790;42.668;23.298;2023-08-24T09:10:54;94832.50;;;35.79;29.38
35676;BME280;21790;42.668;23.298;2023-08-24T09:13:20;94828.63;;;35.63;28.78
35676;BME280;21790;42.668;23.298;2023-08-24T09:15:46;94829.91;;;35.72;29.32
35676;BME280;21790;42.668;23.298;2023-08-24T09:18:12;94819.34;;;35.88;29.07
35676;BME280;21790;42.668;23.298;2023-08-24T09:20:37;94819.97;;;35.86;28.57
35676;BME280;21790;42.668;23.298;2023-08-24T09:23:03;94820.69;;;35.98;28.69
35676;BME280;21790;42.668;23.298;2023-08-24T09:25:29;94818.69;;;36.01;28.74
35676;BME280;21790;42.668;23.298;2023-08-24T09:28:02;94809.03;;;36.20;28.62
35676;BME280;21790;42.668;23.298;2023-08-24T09:30:31;94805.34;;;36.31;28.80
35676;BME280;21790;42.668;23.298;2023-08-24T09:33:05;94803.44;;;36.61;27.97
35676;BME280;21790;42.668;23.298;2023-08-24T09:35:35;94801.44;;;36.63;28.47
35676;BME280;21790;42.668;23.298;2023-08-24T09:38:20;94782.19;;;36.79;28.34
35676;BME280;21790;42.668;23.298;2023-08-24T09:40:47;94788.63;;;36.92;28.28
35676;BME280;21790;42.668;23.298;2023-08-24T09:43:16;94791.31;;;37.01;27.86
35676;BME280;21790;42.668;23.298;2023-08-24T09:46:08;94788.38;;;37.26;27.14
35676;BME280;21790;42.668;23.298;2023-08-24T09:48:33;94788.59;;;37.31;27.37
35676;BME280;21790;42.668;23.298;2023-08-24T09:51:03;94788.25;;;37.38;27.37
35676;BME280;21790;42.668;23.298;2023-08-24T09:53:32;94775.22;;;37.37;27.20
35676;BME280;21790;42.668;23.298;2023-08-24T09:58:24;94771.94;;;37.29;25.98
35676;BME280;21790;42.668;23.298;2023-08-24T10:00:51;94775.88;;;37.22;25.87
35676;BME280;21790;42.668;23.298;2023-08-24T10:03:21;94770.00;;;37.34;26.25
35676;BME280;21790;42.668;23.298;2023-08-24T10:05:59;94764.13;;;37.18;26.17
35676;BME280;21790;42.668;23.298;2023-08-24T10:08:36;94771.50;;;37.21;26.19
35676;BME280;21790;42.668;23.298;2023-08-24T10:11:03;94773.66;;;37.20;26.33
35676;BME280;21790;42.668;23.298;2023-08-24T10:13:45;94778.88;;;37.24;25.89
35676;BME280;21790;42.668;23.298;2023-08-24T10:16:14;94759.59;;;36.87;25.88
35676;BME280;21790;42.668;23.298;2023-08-24T10:18:41;94751.13;;;36.64;26.34
35676;BME280;21790;42.668;23.298;2023-08-24T10:21:08;94760.25;;;36.86;26.65
35676;BME280;21790;42.668;23.298;2023-08-24T10:23:34;94754.72;;;37.04;26.37
35676;BME280;21790;42.668;23.298;2023-08-24T10:26:06;94761.81;;;37.14;26.36
35676;BME280;21790;42.668;23.298;2023-08-24T10:28:32;94769.03;;;37.15;26.00
35676;BME280;21790;42.668;23.298;2023-08-24T10:30:59;94758.06;;;37.25;25.56
35676;BME280;21790;42.668;23.298;2023-08-24T10:33:26;94749.63;;;37.29;25.58
35676;BME280;21790;42.668;23.298;2023-08-24T10:35:52;94745.88;;;37.41;25.72
35676;BME280;21790;42.668;23.298;2023-08-24T10:38:25;94738.59;;;37.53;25.63
35676;BME280;21790;42.668;23.298;2023-08-24T10:40:52;94743.25;;;37.58;25.77
35676;BME280;21790;42.668;23.298;2023-08-24T10:43:17;94751.78;;;37.56;24.96
35676;BME280;21790;42.668;23.298;2023-08-24T10:46:03;94746.97;;;37.61;25.01
35676;BME280;21790;42.668;23.298;2023-08-24T10:53:53;94745.78;;;37.25;25.32
35676;BME280;21790;42.668;23.298;2023-08-24T10:56:20;94747.38;;;37.14;25.12
35676;BME280;21790;42.668;23.298;2023-08-24T10:58:47;94740.19;;;37.02;25.56
35676;BME280;21790;42.668;23.298;2023-08-24T11:01:17;94732.59;;;36.81;25.44
35676;BME280;21790;42.668;23.298;2023-08-24T11:03:50;94741.56;;;36.48;26.98
35676;BME280;21790;42.668;23.298;2023-08-24T11:06:25;94751.94;;;36.28;28.20
35676;BME280;21790;42.668;23.298;2023-08-24T11:09:07;94736.72;;;36.14;28.58
35676;BME280;21790;42.668;23.298;2023-08-24T11:12:01;94733.84;;;36.14;28.78
35676;BME280;21790;42.668;23.298;2023-08-24T11:14:27;94728.09;;;35.88;28.68
35676;BME280;21790;42.668;23.298;2023-08-24T11:17:18;94732.78;;;35.95;28.03
35676;BME280;21790;42.668;23.298;2023-08-24T11:19:51;94732.56;;;35.91;27.59
35676;BME280;21790;42.668;23.298;2023-08-24T11:22:18;94728.19;;;35.90;27.88
35676;BME280;21790;42.668;23.298;2023-08-24T11:24:44;94726.34;;;35.83;28.06
35676;BME280;21790;42.668;23.298;2023-08-24T11:27:09;94720.34;;;35.79;28.08
35676;BME280;21790;42.668;23.298;2023-08-24T11:29:35;94731.84;;;35.79;28.54
35676;BME280;21790;42.668;23.298;2023-08-24T11:32:02;94738.13;;;35.76;28.65
35676;BME280;21790;42.668;23.298;2023-08-24T11:34:28;94726.63;;;35.76;28.47
35676;BME280;21790;42.668;23.298;2023-08-24T11:36:53;94739.25;;;35.71;28.08
35676;BME280;21790;42.668;23.298;2023-08-24T11:39:20;94736.63;;;35.63;28.39
35676;BME280;21790;42.668;23.298;2023-08-24T11:42:04;94738.50;;;35.70;28.43
35676;BME280;21790;42.668;23.298;2023-08-24T11:47:12;94740.94;;;35.39;27.94
35676;BME280;21790;42.668;23.298;2023-08-24T11:49:38;94747.44;;;35.39;28.17
35676;BME280;21790;42.668;23.298;2023-08-24T11:52:04;94745.94;;;35.03;27.97
35676;BME280;21790;42.668;23.298;2023-08-24T11:54:33;94738.44;;;34.98;28.29
35676;BME280;21790;42.668;23.298;2023-08-24T11:56:59;94734.72;;;35.07;28.36
35676;BME280;21790;42.668;23.298;2023-08-24T11:59:25;94743.06;;;35.03;28.19
35676;BME280;21790;42.668;23.298;2023-08-24T12:01:52;94736.19;;;35.08;28.74
35676;BME280;21790;42.668;23.298;2023-08-24T12:04:18;94727.84;;;35.01;28.80
35676;BME280;21790;42.668;23.298;2023-08-24T12:06:44;94724.22;;;35.12;28.59
35676;BME280;21790;42.668;23.298;2023-08-24T12:09:09;94712.88;;;35.02;28.62
35676;BME280;21790;42.668;23.298;2023-08-24T12:11:38;94713.97;;;34.97;28.48
35676;BME280;21790;42.668;23.298;2023-08-24T12:14:05;94700.00;;;34.92;28.92
35676;BME280;21790;42.668;23.298;2023-08-24T12:16:34;94692.38;;;34.96;28.88
35676;BME280;21790;42.668;23.298;2023-08-24T12:19:00;94695.63;;;35.02;28.96
35676;BME280;21790;42.668;23.298;2023-08-24T12:21:29;94696.25;;;34.89;28.60
35676;BME280;21790;42.668;23.298;2023-08-24T12:24:02;94697.75;;;34.78;29.13
35676;BME280;21790;42.668;23.298;2023-08-24T12:26:32;94701.75;;;34.85;28.77
35676;BME280;21790;42.668;23.298;2023-08-24T12:29:08;94701.50;;;34.93;28.98
35676;BME280;21790;42.668;23.298;2023-08-24T12:31:35;94711.75;;;34.96;29.03
35676;BME280;21790;42.668;23.298;2023-08-24T12:34:03;94704.25;;;34.91;29.09
35676;BME280;21790;42.668;23.298;2023-08-24T12:36:29;94711.97;;;34.88;29.23
35676;BME280;21790;42.668;23.298;2023-08-24T12:38:55;94707.38;;;34.83;29.46
35676;BME280;21790;42.668;23.298;2023-08-24T12:41:22;94708.63;;;34.80;29.51
35676;BME280;21790;42.668;23.298;2023-08-24T12:43:47;94701.25;;;34.77;29.46
35676;BME280;21790;42.668;23.298;2023-08-24T12:46:13;94693.63;;;34.81;29.22
35676;BME280;21790;42.668;23.298;2023-08-24T12:48:38;94705.50;;;34.88;29.16
35676;BME280;21790;42.668;23.298;2023-08-24T12:51:04;94699.59;;;34.97;28.93
35676;BME280;21790;42.668;23.298;2023-08-24T12:53:30;94708.88;;;34.96;29.28
35676;BME280;21790;42.668;23.298;2023-08-24T12:55:56;94703.00;;;34.94;28.91
35676;BME280;21790;42.668;23.298;2023-08-24T12:58:21;94717.09;;;35.01;28.59
35676;BME280;21790;42.668;23.298;2023-08-24T13:00:47;94718.84;;;35.06;28.63
35676;BME280;21790;42.668;23.298;2023-08-24T13:03:14;94727.22;;;35.02;28.27
35676;BME280;21790;42.668;23.298;2023-08-24T13:05:39;94724.69;;;35.08;27.82
35676;BME280;21790;42.668;23.298;2023-08-24T13:08:05;94719.09;;;35.10;27.92